CDT,Max TemperatureF,Mean TemperatureF,Min TemperatureF,Max Dew PointF,MeanDew PointF,Min DewpointF,Max Humidity, Mean Humidity, Min Humidity, Max Sea Level PressureIn, Mean Sea Level PressureIn, Min Sea Level PressureIn, Max VisibilityMiles, Mean VisibilityMiles, Min VisibilityMiles, Max Wind SpeedMPH, Mean Wind SpeedMPH, Max Gust SpeedMPH,PrecipitationIn, CloudCover, Events, WindDirDegrees
2014-5-1,73,56,39,29,24,18,64,32,13,30.22,30.15,30.07,10,10,10,14,5,23,0.00,0,,305
2014-5-2,80,63,46,35,26,17,59,28,10,30.11,30.04,29.94,10,10,10,15,5,28,0.00,0,,271
2014-5-3,92,68,43,32,25,20,58,24,8,30.08,30.02,29.96,10,10,10,14,4,20,0.00,0,,239
2014-5-4,94,75,56,34,29,25,36,20,9,30.08,29.99,29.90,10,10,10,16,9,25,0.00,0,,200
2014-5-5,101,80,58,54,45,32,72,34,9,29.96,29.86,29.71,10,10,10,20,10,26,0.00,0,,188
2014-5-6,100,80,60,60,52,33,80,40,11,29.81,29.73,29.62,10,10,7,20,10,30,0.00,0,,187
2014-5-7,97,82,68,64,59,52,80,52,22,29.85,29.75,29.65,10,10,10,24,13,34,0.00,,Thunderstorm,175
2014-5-8,92,80,69,64,50,26,78,45,10,29.88,29.80,29.75,10,10,10,18,9,25,0.00,,,195
2014-5-9,88,74,61,64,40,25,93,37,10,29.97,29.90,29.81,10,10,7,13,5,16,0.00,,Rain-Thunderstorm,178
2014-5-10,98,78,57,59,51,37,82,44,13,29.91,29.82,29.70,10,10,10,20,9,30,0.00,,,178
2014-5-11,96,80,66,63,58,51,77,50,22,29.80,29.73,29.63,10,10,10,26,15,36,0.00,,,166
2014-5-12,85,72,60,66,56,48,75,57,37,30.05,29.86,29.71,10,10,10,23,14,29,0.00,,Rain-Thunderstorm,82
2014-5-13,63,56,50,48,39,29,82,53,28,30.34,30.20,30.04,10,10,7,25,17,37,0.05,,Rain-Thunderstorm,12
2014-5-14,74,60,46,44,31,19,86,44,13,30.35,30.29,30.20,10,10,10,21,8,31,0.00,,,331
2014-5-15,85,64,42,31,22,14,63,26,7,30.28,30.20,30.09,10,10,10,17,7,28,0.00,,,257
2014-5-16,94,70,46,33,25,16,45,19,8,30.15,30.02,29.88,10,10,10,23,8,33,0.00,,,211
2014-5-17,93,75,57,51,39,27,45,27,15,29.99,29.93,29.87,10,10,7,16,9,24,0.00,,,172
2014-5-18,90,75,60,57,53,49,78,49,25,30.07,29.99,29.92,10,10,10,18,10,31,0.00,,,161
2014-5-19,92,77,63,57,54,50,77,47,26,30.00,29.95,29.88,10,10,10,24,15,33,0.00,,,181
2014-5-20,94,78,63,57,52,43,75,45,17,30.04,29.98,29.93,10,10,10,22,13,32,0.00,,,179
2014-5-21,92,80,68,62,56,51,76,48,25,30.07,30.01,29.95,10,10,10,21,11,29,0.00,,,170
2014-5-22,90,79,68,62,59,56,72,53,32,30.10,30.04,29.97,10,10,7,21,12,28,0.00,,,162
2014-5-23,86,74,63,65,60,57,90,63,37,30.08,30.03,29.97,10,10,1,23,11,29,1.42,,Rain-Thunderstorm,151
2014-5-24,80,73,65,68,65,59,88,79,63,30.06,30.00,29.93,10,10,5,25,12,30,0.15,,Rain-Thunderstorm,148
2014-5-25,70,66,62,63,61,57,96,85,69,30.11,30.02,29.91,10,8,2,18,8,25,0.36,,Rain-Thunderstorm,85
2014-5-26,82,72,62,64,59,52,95,71,36,30.04,29.99,29.93,10,10,2,24,11,47,0.10,,Rain-Thunderstorm,168
2014-5-27,85,72,60,65,60,54,95,68,35,30.01,29.94,29.87,10,10,4,21,7,36,0.06,,Rain-Thunderstorm,289
2014-5-28,84,73,62,63,58,55,83,62,38,30.01,29.97,29.91,10,10,10,18,6,23,0.03,,,8
2014-5-29,87,74,62,64,59,55,90,61,34,29.99,29.94,29.89,10,10,10,10,3,18,0.03,,,359
2014-5-30,89,77,65,65,60,53,85,59,29,29.95,29.92,29.87,10,10,7,14,4,25,0.00,2,,3
2014-5-31,89,78,66,65,62,57,89,61,34,30.00,29.95,29.90,10,10,10,12,3,,0.00,1,,39